Time;durP1;ratioP1;P1;durP2;ratioP2;P2;SDS_P1;SDS_P2;PMS_P1;PMS_P2;Temp;Humidity;BMP_temperature;BMP_pressure;BME280_temperature;BME280_humidity;BME280_pressure;Samples;Min_cycle;Max_cycle;Signal;HPM_P1;HPM_P2
2022/02/05 00:00:08;;;;;;;;;;;;;;;;;;347314;28;857;-77
2022/02/05 00:00:24;;;;;;;;;;;;;;;;;;347102;28;854;-77
2022/02/05 00:00:39;;;;;;;;;;;;;;;;;;347196;28;1256;-77
2022/02/05 00:00:49;;;;;;;;;;;;;;;;;;347262;28;949;-76
2022/02/05 00:01:06;;;;;;;;;;;;;;;;;;347250;28;944;-77
2022/02/05 00:01:46;;;;;;;;;;;;;;;;;;347353;28;824;-77
2022/02/05 00:02:03;;;;;;;;;;;;;;;;;;347239;28;1203;-77
2022/02/05 00:02:17;;;;;;;;;;;;;;;;;;347285;28;893;-77
2022/02/05 00:02:32;;;;;;;;;;;;;;;;;;347217;28;945;-77
2022/02/05 00:02:48;;;;;;;;;;;;;;;;;;347293;28;987;-77
2022/02/05 00:03:38;;;;;;;;;;;;;;;;;;347166;28;1019;-77
2022/02/05 00:03:55;;;;;;;;;;;;;;;;;;347204;28;1003;-77
2022/02/05 00:04:10;;;;;;;;;;;;;;;;;;347259;28;1051;-76
2022/02/05 00:04:21;;;;;;;;;;;;;;;;;;348219;28;1884;-76
2022/02/05 00:04:33;;;;;;;;;;;;;;;;;;348400;28;1812;-77
2022/02/05 00:04:44;;;;;;;;;;;;;;;;;;348538;28;906;-77
2022/02/05 00:04:54;;;;;;;;;;;;;;;;;;348569;28;990;-76
2022/02/05 00:05:05;;;;;;;;;;;;;;;;;;347180;28;940;-76
2022/02/05 00:05:18;;;;;;;;;;;;;;;;;;347168;28;944;-77
2022/02/05 00:05:52;;;;;;;;;;;;;;;;;;347180;28;910;-77
2022/02/05 00:06:05;;;;;;;;;;;;;;;;;;347208;28;953;-76
2022/02/05 00:06:20;;;;;;;;;;;;;;;;;;347642;28;936;-77
2022/02/05 00:06:35;;;;;;;;;;;;;;;;;;348505;28;853;-77
2022/02/05 00:06:50;;;;;;;;;;;;;;;;;;348442;28;1520;-77
2022/02/05 00:07:02;;;;;;;;;;;;;;;;;;347194;28;893;-77
2022/02/05 00:07:13;;;;;;;;;;;;;;;;;;347296;28;991;-77
2022/02/05 00:07:25;;;;;;;;;;;;;;;;;;347681;28;1175;-77
2022/02/05 00:07:41;;;;;;;;;;;;;;;;;;347586;28;1498;-76
2022/02/05 00:08:09;;;;;;;;;;;;;;;;;;348341;28;1419;-77
2022/02/05 00:10:21;;;;;;;;;;;;;;;;;;348597;28;846;-76
2022/02/05 00:12:57;;;;;;;;;;;;;;;;;;348371;28;1835;-77
2022/02/05 00:13:47;;;;;;;;;;;;;;;;;;348575;28;940;-77
2022/02/05 00:14:28;;;;;;;;;;;;;;;;;;348561;28;925;-77
2022/02/05 00:15:06;;;;;;;;;;;;;;;;;;347283;28;929;-77
2022/02/05 00:15:54;;;;;;;;;;;;;;;;;;347174;28;997;-77
2022/02/05 00:20:25;;;;;;;;;;;;;;;;;;347259;28;821;-77
2022/02/05 00:38:36;;;;;;;;;;;;;;;;;;348424;28;1883;-77
2022/02/05 00:39:23;;;;;;;;;;;;;;;;;;348554;28;984;-76
2022/02/05 00:40:28;;;;;;;;;;;;;;;;;;348503;28;941;-76
2022/02/05 00:40:59;;;;;;;;;;;;;;;;;;347557;28;1819;-77
2022/02/05 00:41:47;;;;;;;;;;;;;;;;;;348639;28;995;-77
2022/02/05 00:42:26;;;;;;;;;;;;;;;;;;348525;28;972;-76
2022/02/05 00:42:41;;;;;;;;;;;;;;;;;;348344;28;1905;-77
2022/02/05 00:42:53;;;;;;;;;;;;;;;;;;347221;28;795;-76
2022/02/05 00:43:03;;;;;;;;;;;;;;;;;;347388;28;1695;-76
2022/02/05 00:43:15;;;;;;;;;;;;;;;;;;348530;28;1011;-76
2022/02/05 00:43:28;;;;;;;;;;;;;;;;;;348604;28;936;-76
2022/02/05 00:43:44;;;;;;;;;;;;;;;;;;348605;28;966;-76
2022/02/05 00:43:59;;;;;;;;;;;;;;;;;;348421;28;1434;-77
2022/02/05 00:44:10;;;;;;;;;;;;;;;;;;348586;28;862;-76
2022/02/05 00:44:20;;;;;;;;;;;;;;;;;;348619;28;913;-76
2022/02/05 00:44:30;;;;;;;;;;;;;;;;;;348414;28;1149;-77
2022/02/05 00:44:40;;;;;;;;;;;;;;;;;;348565;28;945;-76
2022/02/05 00:44:51;;;;;;;;;;;;;;;;;;348275;28;1723;-76
2022/02/05 00:45:06;;;;;;;;;;;;;;;;;;348536;28;1792;-76
2022/02/05 00:45:16;;;;;;;;;;;;;;;;;;348622;28;826;-76
2022/02/05 00:45:30;;;;;;;;;;;;;;;;;;348620;28;909;-76
2022/02/05 00:45:44;;;;;;;;;;;;;;;;;;348585;28;805;-76
2022/02/05 00:45:56;;;;;;;;;;;;;;;;;;348429;28;1059;-76
2022/02/05 00:46:07;;;;;;;;;;;;;;;;;;348418;28;861;-76
2022/02/05 00:46:18;;;;;;;;;;;;;;;;;;348267;28;1304;-76
2022/02/05 00:46:34;;;;;;;;;;;;;;;;;;348430;28;979;-76
2022/02/05 00:46:46;;;;;;;;;;;;;;;;;;348540;28;1004;-76
2022/02/05 00:46:56;;;;;;;;;;;;;;;;;;348635;28;853;-76
2022/02/05 00:47:07;;;;;;;;;;;;;;;;;;348630;28;948;-76
2022/02/05 00:47:17;;;;;;;;;;;;;;;;;;348601;28;1050;-76
2022/02/05 00:47:29;;;;;;;;;;;;;;;;;;348574;28;972;-77
2022/02/05 00:47:42;;;;;;;;;;;;;;;;;;348570;28;1073;-76
2022/02/05 00:47:55;;;;;;;;;;;;;;;;;;348602;28;826;-77
2022/02/05 00:48:06;;;;;;;;;;;;;;;;;;348636;28;945;-77
2022/02/05 00:48:18;;;;;;;;;;;;;;;;;;348502;28;1036;-76
2022/02/05 00:48:28;;;;;;;;;;;;;;;;;;348517;28;1973;-77
2022/02/05 00:48:38;;;;;;;;;;;;;;;;;;348637;28;889;-76
2022/02/05 00:48:49;;;;;;;;;;;;;;;;;;348597;28;1043;-76
2022/02/05 00:48:59;;;;;;;;;;;;;;;;;;348569;28;964;-77
2022/02/05 00:49:10;;;;;;;;;;;;;;;;;;348628;28;877;-76
2022/02/05 00:49:20;;;;;;;;;;;;;;;;;;348378;28;1746;-76
2022/02/05 00:49:30;;;;;;;;;;;;;;;;;;348543;28;1761;-77
2022/02/05 00:49:41;;;;;;;;;;;;;;;;;;348548;28;893;-77
2022/02/05 00:49:57;;;;;;;;;;;;;;;;;;348474;28;1126;-77
2022/02/05 00:50:13;;;;;;;;;;;;;;;;;;348580;28;980;-77
2022/02/05 00:50:26;;;;;;;;;;;;;;;;;;348606;28;944;-77
2022/02/05 00:50:41;;;;;;;;;;;;;;;;;;348541;28;941;-76
2022/02/05 00:50:57;;;;;;;;;;;;;;;;;;348588;28;961;-76
2022/02/05 00:51:18;;;;;;;;;;;;;;;;;;348628;28;1000;-77
2022/02/05 00:52:09;;;;;;;;;;;;;;;;;;348450;28;957;-77
2022/02/05 00:52:14;;;;;;;;;;;;;;;;;;348628;28;917;-76
2022/02/05 00:52:20;;;;;;;;;;;;;;;;;;348106;28;1010;-76
2022/02/05 00:52:31;;;;;;;;;;;;;;;;;;348569;28;972;-76
2022/02/05 00:52:45;;;;;;;;;;;;;;;;;;348612;28;988;-77
2022/02/05 00:53:00;;;;;;;;;;;;;;;;;;348382;28;1797;-76
2022/02/05 00:53:25;;;;;;;;;;;;;;;;;;348617;28;769;-76
2022/02/05 00:53:38;;;;;;;;;;;;;;;;;;348633;28;1000;-76
2022/02/05 00:53:59;;;;;;;;;;;;;;;;;;348570;28;885;-76
2022/02/05 00:54:19;;;;;;;;;;;;;;;;;;348609;28;830;-76
2022/02/05 00:54:29;;;;;;;;;;;;;;;;;;348388;28;1520;-77
2022/02/05 00:54:44;;;;;;;;;;;;;;;;;;348589;28;984;-76
2022/02/05 00:55:03;;;;;;;;;;;;;;;;;;348546;28;936;-77
2022/02/05 00:55:22;;;;;;;;;;;;;;;;;;348635;28;941;-76
2022/02/05 00:55:36;;;;;;;;;;;;;;;;;;348564;28;1007;-76
2022/02/05 00:55:53;;;;;;;;;;;;;;;;;;348612;28;850;-77
2022/02/05 00:56:14;;;;;;;;;;;;;;;;;;348612;28;807;-76
2022/02/05 00:56:46;;;;;;;;;;;;;;;;;;348640;28;991;-77
2022/02/05 00:57:34;;;;;;;;;;;;;;;;;;348616;28;904;-76
2022/02/05 00:57:46;;;;;;;;;;;;;;;;;;348405;28;1223;-76
2022/02/05 00:58:02;;;;;;;;;;;;;;;;;;348521;28;1097;-77
2022/02/05 00:58:12;;;;;;;;;;;;;;;;;;348578;28;758;-77
2022/02/05 00:58:22;;;;;;;;;;;;;;;;;;348624;28;842;-76
2022/02/05 00:58:36;;;;;;;;;;;;;;;;;;348527;28;976;-77
2022/02/05 00:58:46;;;;;;;;;;;;;;;;;;348611;28;897;-77
2022/02/05 00:58:56;;;;;;;;;;;;;;;;;;348569;28;890;-76
2022/02/05 00:59:07;;;;;;;;;;;;;;;;;;348600;28;912;-77
2022/02/05 00:59:18;;;;;;;;;;;;;;;;;;348574;28;897;-77
2022/02/05 00:59:28;;;;;;;;;;;;;;;;;;348622;28;842;-77
2022/02/05 00:59:38;;;;;;;;;;;;;;;;;;348583;28;921;-77
2022/02/05 00:59:48;;;;;;;;;;;;;;;;;;348578;28;916;-76
2022/02/05 00:59:59;;;;;;;;;;;;;;;;;;348519;28;1007;-77
2022/02/05 01:00:09;;;;;;;;;;;;;;;;;;348598;28;964;-77
2022/02/05 01:00:20;;;;;;;;;;;;;;;;;;348564;28;1068;-77
2022/02/05 01:00:30;;;;;;;;;;;;;;;;;;348546;28;928;-76
2022/02/05 01:00:41;;;;;;;;;;;;;;;;;;348503;28;905;-77
2022/02/05 01:00:51;;;;;;;;;;;;;;;;;;348591;28;967;-76
2022/02/05 01:01:01;;;;;;;;;;;;;;;;;;348509;28;932;-77
2022/02/05 01:01:11;;;;;;;;;;;;;;;;;;348528;28;1126;-77
2022/02/05 01:01:21;;;;;;;;;;;;;;;;;;348603;28;960;-76
2022/02/05 01:01:32;;;;;;;;;;;;;;;;;;348568;28;899;-77
2022/02/05 01:01:42;;;;;;;;;;;;;;;;;;348588;28;956;-76
2022/02/05 01:01:52;;;;;;;;;;;;;;;;;;348603;28;921;-77
2022/02/05 01:02:03;;;;;;;;;;;;;;;;;;348517;28;870;-77
2022/02/05 01:02:13;;;;;;;;;;;;;;;;;;348654;28;908;-77
2022/02/05 01:02:23;;;;;;;;;;;;;;;;;;348647;28;941;-76
2022/02/05 01:02:33;;;;;;;;;;;;;;;;;;348562;28;980;-77
2022/02/05 01:02:44;;;;;;;;;;;;;;;;;;348457;28;1254;-77
2022/02/05 01:02:54;;;;;;;;;;;;;;;;;;348574;28;916;-77
2022/02/05 01:03:04;;;;;;;;;;;;;;;;;;348522;28;921;-77
2022/02/05 01:03:14;;;;;;;;;;;;;;;;;;348576;28;929;-77
2022/02/05 01:03:25;;;;;;;;;;;;;;;;;;348611;28;854;-76
2022/02/05 01:03:36;;;;;;;;;;;;;;;;;;348528;28;969;-77
2022/02/05 01:03:46;;;;;;;;;;;;;;;;;;348609;28;924;-77
2022/02/05 01:03:56;;;;;;;;;;;;;;;;;;348592;28;909;-77
2022/02/05 01:04:06;;;;;;;;;;;;;;;;;;348512;28;968;-77
2022/02/05 01:04:16;;;;;;;;;;;;;;;;;;348170;28;1652;-76
2022/02/05 01:04:27;;;;;;;;;;;;;;;;;;348338;28;1824;-76
2022/02/05 01:04:37;;;;;;;;;;;;;;;;;;348489;28;977;-76
2022/02/05 01:04:47;;;;;;;;;;;;;;;;;;348572;28;884;-76
2022/02/05 01:04:57;;;;;;;;;;;;;;;;;;348524;28;929;-77
2022/02/05 01:05:08;;;;;;;;;;;;;;;;;;348521;28;968;-77
2022/02/05 01:05:20;;;;;;;;;;;;;;;;;;348612;28;905;-76
2022/02/05 01:05:30;;;;;;;;;;;;;;;;;;348628;28;880;-76
2022/02/05 01:05:42;;;;;;;;;;;;;;;;;;348519;28;865;-76
2022/02/05 01:05:52;;;;;;;;;;;;;;;;;;348588;28;988;-77
2022/02/05 01:06:04;;;;;;;;;;;;;;;;;;348478;28;1007;-77
2022/02/05 01:06:14;;;;;;;;;;;;;;;;;;348215;28;1282;-76
2022/02/05 01:06:24;;;;;;;;;;;;;;;;;;348488;28;940;-77
2022/02/05 01:06:35;;;;;;;;;;;;;;;;;;348507;28;862;-77
2022/02/05 01:06:45;;;;;;;;;;;;;;;;;;348464;28;921;-77
2022/02/05 01:06:56;;;;;;;;;;;;;;;;;;348397;28;917;-77
2022/02/05 01:07:06;;;;;;;;;;;;;;;;;;348430;28;953;-77
2022/02/05 01:07:17;;;;;;;;;;;;;;;;;;348430;28;929;-77
2022/02/05 01:07:27;;;;;;;;;;;;;;;;;;348503;28;937;-77
2022/02/05 01:07:38;;;;;;;;;;;;;;;;;;348484;28;921;-76
2022/02/05 01:07:48;;;;;;;;;;;;;;;;;;348453;28;886;-77
2022/02/05 01:07:58;;;;;;;;;;;;;;;;;;348471;28;992;-77
2022/02/05 01:08:10;;;;;;;;;;;;;;;;;;348511;28;841;-77
2022/02/05 01:08:20;;;;;;;;;;;;;;;;;;348554;28;826;-77
2022/02/05 01:08:31;;;;;;;;;;;;;;;;;;348476;28;1894;-77
2022/02/05 01:08:41;;;;;;;;;;;;;;;;;;348513;28;1058;-77
2022/02/05 01:08:52;;;;;;;;;;;;;;;;;;348470;28;998;-77
2022/02/05 01:09:06;;;;;;;;;;;;;;;;;;348544;28;882;-77
2022/02/05 01:09:22;;;;;;;;;;;;;;;;;;348330;28;1531;-77
2022/02/05 01:09:33;;;;;;;;;;;;;;;;;;348574;28;934;-77
2022/02/05 01:09:46;;;;;;;;;;;;;;;;;;348565;28;964;-77
2022/02/05 01:09:56;;;;;;;;;;;;;;;;;;348603;28;893;-76
2022/02/05 01:10:07;;;;;;;;;;;;;;;;;;348536;28;925;-77
2022/02/05 01:10:17;;;;;;;;;;;;;;;;;;348581;28;913;-77
2022/02/05 01:10:28;;;;;;;;;;;;;;;;;;348591;28;1128;-77
2022/02/05 01:10:38;;;;;;;;;;;;;;;;;;348368;28;1671;-76
2022/02/05 01:10:48;;;;;;;;;;;;;;;;;;348453;28;1942;-77
2022/02/05 01:10:59;;;;;;;;;;;;;;;;;;348591;28;838;-76
2022/02/05 01:11:09;;;;;;;;;;;;;;;;;;348520;28;847;-76
2022/02/05 01:11:19;;;;;;;;;;;;;;;;;;348462;28;1135;-77
2022/02/05 01:11:29;;;;;;;;;;;;;;;;;;348578;28;917;-76
2022/02/05 01:11:40;;;;;;;;;;;;;;;;;;348609;28;833;-76
2022/02/05 01:11:51;;;;;;;;;;;;;;;;;;348550;28;917;-77
2022/02/05 01:12:03;;;;;;;;;;;;;;;;;;348382;28;1378;-77
2022/02/05 01:12:13;;;;;;;;;;;;;;;;;;348396;28;1065;-76
2022/02/05 01:12:26;;;;;;;;;;;;;;;;;;348391;28;1039;-76
2022/02/05 01:12:40;;;;;;;;;;;;;;;;;;347724;28;1730;-76
2022/02/05 01:12:55;;;;;;;;;;;;;;;;;;347019;28;980;-77
2022/02/05 01:13:09;;;;;;;;;;;;;;;;;;347111;28;989;-77
2022/02/05 01:13:20;;;;;;;;;;;;;;;;;;346972;28;992;-77
2022/02/05 01:13:32;;;;;;;;;;;;;;;;;;347118;28;952;-76
2022/02/05 01:13:42;;;;;;;;;;;;;;;;;;347139;28;810;-77
2022/02/05 01:13:55;;;;;;;;;;;;;;;;;;346950;28;1396;-76
2022/02/05 01:14:08;;;;;;;;;;;;;;;;;;347257;28;953;-76
2022/02/05 01:14:24;;;;;;;;;;;;;;;;;;347189;28;1023;-76
2022/02/05 01:14:44;;;;;;;;;;;;;;;;;;347187;28;1058;-77
2022/02/05 01:14:58;;;;;;;;;;;;;;;;;;347235;28;925;-76
2022/02/05 01:15:09;;;;;;;;;;;;;;;;;;347182;28;960;-77
2022/02/05 01:15:23;;;;;;;;;;;;;;;;;;347078;28;1105;-77
2022/02/05 01:15:41;;;;;;;;;;;;;;;;;;347257;28;873;-77
2022/02/05 01:16:30;;;;;;;;;;;;;;;;;;349737;28;1134;-77
2022/02/05 01:16:48;;;;;;;;;;;;;;;;;;347147;28;1003;-77
2022/02/05 01:16:54;;;;;;;;;;;;;;;;;;348525;28;1018;-77
2022/02/05 01:17:08;;;;;;;;;;;;;;;;;;347191;28;996;-77
2022/02/05 01:17:24;;;;;;;;;;;;;;;;;;347113;28;961;-77
2022/02/05 01:17:41;;;;;;;;;;;;;;;;;;347175;28;945;-76
2022/02/05 01:18:00;;;;;;;;;;;;;;;;;;347217;28;861;-77
2022/02/05 01:18:13;;;;;;;;;;;;;;;;;;347220;28;925;-77
2022/02/05 01:18:24;;;;;;;;;;;;;;;;;;347211;28;984;-76
2022/02/05 01:18:37;;;;;;;;;;;;;;;;;;347248;28;937;-77
2022/02/05 01:18:48;;;;;;;;;;;;;;;;;;347166;28;937;-76
2022/02/05 01:18:59;;;;;;;;;;;;;;;;;;347182;28;964;-77
2022/02/05 01:19:17;;;;;;;;;;;;;;;;;;347178;28;1019;-76
2022/02/05 01:21:00;;;;;;;;;;;;;;;;;;348572;28;979;-77
2022/02/05 01:21:48;;;;;;;;;;;;;;;;;;348523;28;932;-77
2022/02/05 01:22:00;;;;;;;;;;;;;;;;;;348624;28;1014;-76
2022/02/05 01:22:12;;;;;;;;;;;;;;;;;;348568;28;951;-76
2022/02/05 01:22:22;;;;;;;;;;;;;;;;;;348604;28;916;-77
2022/02/05 01:22:36;;;;;;;;;;;;;;;;;;348583;28;996;-77
2022/02/05 01:22:48;;;;;;;;;;;;;;;;;;348582;28;864;-77
2022/02/05 01:23:02;;;;;;;;;;;;;;;;;;348562;28;1007;-77
2022/02/05 01:23:16;;;;;;;;;;;;;;;;;;348595;28;996;-77
2022/02/05 01:23:39;;;;;;;;;;;;;;;;;;348549;28;954;-77
2022/02/05 01:23:56;;;;;;;;;;;;;;;;;;348604;28;778;-77
2022/02/05 01:24:09;;;;;;;;;;;;;;;;;;347701;28;1326;-77
2022/02/05 01:24:21;;;;;;;;;;;;;;;;;;348493;28;786;-77
2022/02/05 01:24:32;;;;;;;;;;;;;;;;;;348556;28;872;-77
2022/02/05 01:24:45;;;;;;;;;;;;;;;;;;348593;28;853;-77
2022/02/05 01:24:55;;;;;;;;;;;;;;;;;;348610;28;928;-77
2022/02/05 01:25:06;;;;;;;;;;;;;;;;;;348530;28;940;-77
2022/02/05 01:25:21;;;;;;;;;;;;;;;;;;348412;28;1271;-77
2022/02/05 01:25:36;;;;;;;;;;;;;;;;;;348576;28;1002;-77
2022/02/05 01:25:55;;;;;;;;;;;;;;;;;;348550;28;1007;-77
2022/02/05 01:26:15;;;;;;;;;;;;;;;;;;348572;28;1020;-77
2022/02/05 01:26:35;;;;;;;;;;;;;;;;;;348489;28;1691;-77
2022/02/05 01:26:52;;;;;;;;;;;;;;;;;;347230;28;1004;-77
2022/02/05 01:27:08;;;;;;;;;;;;;;;;;;347228;28;909;-77
2022/02/05 01:27:32;;;;;;;;;;;;;;;;;;347220;28;923;-76
2022/02/05 01:27:49;;;;;;;;;;;;;;;;;;347174;28;980;-77
2022/02/05 01:28:07;;;;;;;;;;;;;;;;;;347225;28;960;-77
2022/02/05 01:28:23;;;;;;;;;;;;;;;;;;347186;28;976;-77
2022/02/05 01:28:34;;;;;;;;;;;;;;;;;;347093;28;1911;-77
2022/02/05 01:28:50;;;;;;;;;;;;;;;;;;347130;28;984;-77
2022/02/05 01:29:06;;;;;;;;;;;;;;;;;;347178;28;960;-76
2022/02/05 01:29:30;;;;;;;;;;;;;;;;;;347192;28;925;-77
2022/02/05 01:30:03;;;;;;;;;;;;;;;;;;347227;28;877;-76
2022/02/05 01:30:23;;;;;;;;;;;;;;;;;;347190;28;889;-77
2022/02/05 01:30:37;;;;;;;;;;;;;;;;;;347178;28;968;-77
2022/02/05 01:30:52;;;;;;;;;;;;;;;;;;347136;28;1000;-77
2022/02/05 01:31:02;;;;;;;;;;;;;;;;;;347025;28;813;-76
2022/02/05 01:31:12;;;;;;;;;;;;;;;;;;347038;28;972;-77
2022/02/05 01:31:27;;;;;;;;;;;;;;;;;;347087;28;933;-77
2022/02/05 01:31:46;;;;;;;;;;;;;;;;;;347077;28;961;-77
2022/02/05 01:32:00;;;;;;;;;;;;;;;;;;347096;28;810;-77
2022/02/05 01:32:16;;;;;;;;;;;;;;;;;;347105;28;826;-77
2022/02/05 01:32:29;;;;;;;;;;;;;;;;;;347109;28;786;-77
2022/02/05 01:32:45;;;;;;;;;;;;;;;;;;347104;28;810;-77
2022/02/05 01:33:45;;;;;;;;;;;;;;;;;;347196;28;1003;-77
2022/02/05 01:34:24;;;;;;;;;;;;;;;;;;348514;28;1723;-77
2022/02/05 01:34:45;;;;;;;;;;;;;;;;;;349763;28;1020;-76
2022/02/05 01:35:07;;;;;;;;;;;;;;;;;;349707;28;940;-77
2022/02/05 01:36:09;;;;;;;;;;;;;;;;;;348493;28;1035;-77
2022/02/05 01:36:40;;;;;;;;;;;;;;;;;;348429;28;1217;-77
2022/02/05 01:48:56;;;;;;;;;;;;;;;;;;348536;28;928;-77
2022/02/05 01:48:59;;;;;;;;;;;;;;;;;;348557;28;1011;-77
2022/02/05 01:50:13;;;;;;;;;;;;;;;;;;347171;28;1012;-76
2022/02/05 01:52:24;;;;;;;;;;;;;;;;;;349735;28;851;-77
2022/02/05 01:53:25;;;;;;;;;;;;;;;;;;349747;28;969;-77
2022/02/05 01:54:36;;;;;;;;;;;;;;;;;;346948;28;1043;-77
2022/02/05 01:55:31;;;;;;;;;;;;;;;;;;347023;28;901;-77
2022/02/05 01:56:29;;;;;;;;;;;;;;;;;;348381;28;944;-76
2022/02/05 01:56:52;;;;;;;;;;;;;;;;;;348373;28;1024;-77
2022/02/05 01:57:09;;;;;;;;;;;;;;;;;;348348;28;805;-77
2022/02/05 01:57:27;;;;;;;;;;;;;;;;;;348375;28;1151;-77
2022/02/05 01:57:53;;;;;;;;;;;;;;;;;;348683;28;972;-77
2022/02/05 01:58:59;;;;;;;;;;;;;;;;;;348784;28;937;-77
2022/02/05 01:59:18;;;;;;;;;;;;;;;;;;348716;28;969;-77
2022/02/05 01:59:48;;;;;;;;;;;;;;;;;;348848;28;921;-77
2022/02/05 02:04:53;;;;;;;;;;;;;;;;;;347420;28;1024;-77
2022/02/05 02:05:07;;;;;;;;;;;;;;;;;;347301;28;984;-77
2022/02/05 02:05:26;;;;;;;;;;;;;;;;;;347291;28;929;-77
2022/02/05 02:05:40;;;;;;;;;;;;;;;;;;347248;28;1016;-77
2022/02/05 02:07:03;;;;;;;;;;;;;;;;;;347309;28;961;-77
2022/02/05 02:07:13;;;;;;;;;;;;;;;;;;347199;28;1022;-77
2022/02/05 02:10:27;;;;;;;;;;;;;;;;;;347472;28;834;-77
2022/02/05 02:11:27;;;;;;;;;;;;;;;;;;347461;28;875;-76
2022/02/05 02:12:26;;;;;;;;;;;;;;;;;;347236;28;1012;-77
2022/02/05 02:12:42;;;;;;;;;;;;;;;;;;347202;28;1215;-77
2022/02/05 02:14:55;;;;;;;;;;;;;;;;;;347231;28;1016;-77
2022/02/05 02:15:16;;;;;;;;;;;;;;;;;;347276;28;842;-77
2022/02/05 02:15:36;;;;;;;;;;;;;;;;;;348803;28;833;-77
2022/02/05 02:15:59;;;;;;;;;;;;;;;;;;348778;28;951;-77
2022/02/05 02:20:21;;;;;;;;;;;;;;;;;;348738;28;1028;-77
2022/02/05 02:20:57;;;;;;;;;;;;;;;;;;348740;28;936;-77
2022/02/05 02:21:22;;;;;;;;;;;;;;;;;;348741;28;877;-77
2022/02/05 02:21:40;;;;;;;;;;;;;;;;;;347413;28;925;-77
2022/02/05 02:22:01;;;;;;;;;;;;;;;;;;347432;28;814;-77
2022/02/05 02:23:09;;;;;;;;;;;;;;;;;;348387;28;1672;-77
2022/02/05 02:23:47;;;;;;;;;;;;;;;;;;348617;28;944;-77
2022/02/05 02:24:14;;;;;;;;;;;;;;;;;;348503;28;941;-77
2022/02/05 02:25:42;;;;;;;;;;;;;;;;;;348623;28;893;-77
2022/02/05 02:26:05;;;;;;;;;;;;;;;;;;348657;28;920;-77
2022/02/05 02:26:45;;;;;;;;;;;;;;;;;;347427;28;893;-77
2022/02/05 02:28:16;;;;;;;;;;;;;;;;;;347404;28;869;-77
2022/02/05 02:28:33;;;;;;;;;;;;;;;;;;346454;28;995;-77
2022/02/05 02:29:03;;;;;;;;;;;;;;;;;;347352;28;909;-77
2022/02/05 02:29:28;;;;;;;;;;;;;;;;;;347434;28;1052;-77
2022/02/05 02:29:57;;;;;;;;;;;;;;;;;;347366;28;890;-77
2022/02/05 02:30:16;;;;;;;;;;;;;;;;;;347447;28;976;-77
2022/02/05 02:30:30;;;;;;;;;;;;;;;;;;347398;28;1027;-77
2022/02/05 02:30:52;;;;;;;;;;;;;;;;;;347421;28;984;-77
2022/02/05 02:31:08;;;;;;;;;;;;;;;;;;347423;28;941;-77
2022/02/05 02:31:25;;;;;;;;;;;;;;;;;;347455;28;968;-77
2022/02/05 02:31:41;;;;;;;;;;;;;;;;;;347393;28;877;-77
2022/02/05 02:31:51;;;;;;;;;;;;;;;;;;347362;28;948;-77
2022/02/05 02:32:01;;;;;;;;;;;;;;;;;;347365;28;882;-77
2022/02/05 02:32:12;;;;;;;;;;;;;;;;;;347418;28;871;-77
2022/02/05 02:32:23;;;;;;;;;;;;;;;;;;347197;28;965;-77
2022/02/05 02:32:36;;;;;;;;;;;;;;;;;;347236;28;957;-77
2022/02/05 02:32:52;;;;;;;;;;;;;;;;;;347314;28;937;-77
2022/02/05 02:33:12;;;;;;;;;;;;;;;;;;347270;28;961;-77
2022/02/05 02:33:30;;;;;;;;;;;;;;;;;;347325;28;862;-77
2022/02/05 02:33:45;;;;;;;;;;;;;;;;;;347259;28;1048;-76
2022/02/05 02:33:59;;;;;;;;;;;;;;;;;;347286;28;1021;-77
2022/02/05 02:34:14;;;;;;;;;;;;;;;;;;347328;28;953;-77
2022/02/05 02:34:29;;;;;;;;;;;;;;;;;;348488;28;1816;-77
2022/02/05 02:34:45;;;;;;;;;;;;;;;;;;348761;28;884;-77
2022/02/05 02:35:02;;;;;;;;;;;;;;;;;;348729;28;988;-76
2022/02/05 02:35:19;;;;;;;;;;;;;;;;;;348722;28;929;-77
2022/02/05 02:35:31;;;;;;;;;;;;;;;;;;348722;28;1000;-77
2022/02/05 02:35:45;;;;;;;;;;;;;;;;;;348790;28;929;-77
2022/02/05 02:35:56;;;;;;;;;;;;;;;;;;348699;28;911;-77
2022/02/05 02:36:08;;;;;;;;;;;;;;;;;;348757;28;933;-77
2022/02/05 02:36:56;;;;;;;;;;;;;;;;;;345807;28;981;-76
2022/02/05 02:37:01;;;;;;;;;;;;;;;;;;348779;28;988;-77
2022/02/05 02:37:07;;;;;;;;;;;;;;;;;;347365;28;1125;-77
2022/02/05 02:37:23;;;;;;;;;;;;;;;;;;348803;28;928;-77
2022/02/05 02:38:11;;;;;;;;;;;;;;;;;;348793;28;917;-77
2022/02/05 02:38:14;;;;;;;;;;;;;;;;;;349923;28;1076;-77
2022/02/05 02:38:33;;;;;;;;;;;;;;;;;;349931;28;1452;-77
2022/02/05 02:38:49;;;;;;;;;;;;;;;;;;348762;28;1009;-77
2022/02/05 02:39:43;;;;;;;;;;;;;;;;;;348731;28;940;-77
2022/02/05 02:39:50;;;;;;;;;;;;;;;;;;347579;28;1052;-77
2022/02/05 02:40:13;;;;;;;;;;;;;;;;;;348748;28;940;-76
2022/02/05 02:41:07;;;;;;;;;;;;;;;;;;348361;28;1796;-76
2022/02/05 02:41:29;;;;;;;;;;;;;;;;;;348686;28;1015;-77
2022/02/05 02:41:46;;;;;;;;;;;;;;;;;;348779;28;814;-77
2022/02/05 02:42:04;;;;;;;;;;;;;;;;;;348551;28;1436;-77
2022/02/05 02:42:15;;;;;;;;;;;;;;;;;;348760;28;865;-77
2022/02/05 02:42:26;;;;;;;;;;;;;;;;;;348765;28;940;-77
2022/02/05 02:42:42;;;;;;;;;;;;;;;;;;348539;28;1306;-77
2022/02/05 02:42:59;;;;;;;;;;;;;;;;;;348639;28;794;-77
2022/02/05 02:43:24;;;;;;;;;;;;;;;;;;348683;28;877;-77
2022/02/05 02:43:35;;;;;;;;;;;;;;;;;;348661;28;984;-77
2022/02/05 02:43:46;;;;;;;;;;;;;;;;;;348292;28;1333;-77
2022/02/05 02:43:56;;;;;;;;;;;;;;;;;;348474;28;1004;-77
2022/02/05 02:44:06;;;;;;;;;;;;;;;;;;348597;28;999;-77
2022/02/05 02:44:17;;;;;;;;;;;;;;;;;;348688;28;910;-77
2022/02/05 02:44:27;;;;;;;;;;;;;;;;;;348667;28;506;-77
2022/02/05 02:44:38;;;;;;;;;;;;;;;;;;348648;28;921;-77
2022/02/05 02:44:48;;;;;;;;;;;;;;;;;;348557;28;859;-77
2022/02/05 02:44:59;;;;;;;;;;;;;;;;;;348679;28;796;-77
2022/02/05 02:45:09;;;;;;;;;;;;;;;;;;348629;28;1035;-77
2022/02/05 02:45:19;;;;;;;;;;;;;;;;;;348696;28;968;-77
2022/02/05 02:45:29;;;;;;;;;;;;;;;;;;348635;28;891;-77
2022/02/05 02:45:41;;;;;;;;;;;;;;;;;;348700;28;913;-77
2022/02/05 02:45:52;;;;;;;;;;;;;;;;;;348746;28;979;-77
2022/02/05 02:46:02;;;;;;;;;;;;;;;;;;348776;28;885;-77
2022/02/05 02:46:12;;;;;;;;;;;;;;;;;;348553;28;1223;-78
2022/02/05 02:46:22;;;;;;;;;;;;;;;;;;348705;28;869;-77
2022/02/05 02:46:34;;;;;;;;;;;;;;;;;;348716;28;980;-77
2022/02/05 02:46:44;;;;;;;;;;;;;;;;;;348749;28;917;-76
2022/02/05 02:46:54;;;;;;;;;;;;;;;;;;348711;28;989;-77
2022/02/05 02:47:04;;;;;;;;;;;;;;;;;;348681;28;948;-77
2022/02/05 02:47:15;;;;;;;;;;;;;;;;;;348554;28;1698;-77
2022/02/05 02:47:26;;;;;;;;;;;;;;;;;;347279;28;1031;-77
2022/02/05 02:47:42;;;;;;;;;;;;;;;;;;347381;28;806;-77
2022/02/05 02:47:53;;;;;;;;;;;;;;;;;;347355;28;945;-77
2022/02/05 02:48:03;;;;;;;;;;;;;;;;;;347363;28;945;-77
2022/02/05 02:48:13;;;;;;;;;;;;;;;;;;347319;28;1011;-77
2022/02/05 02:48:24;;;;;;;;;;;;;;;;;;347402;28;925;-77
2022/02/05 02:48:35;;;;;;;;;;;;;;;;;;347346;28;1898;-77
2022/02/05 02:48:47;;;;;;;;;;;;;;;;;;347325;28;921;-77
2022/02/05 02:48:59;;;;;;;;;;;;;;;;;;347390;28;992;-77
2022/02/05 02:49:14;;;;;;;;;;;;;;;;;;347253;28;941;-77
2022/02/05 02:50:14;;;;;;;;;;;;;;;;;;348517;28;818;-77
2022/02/05 02:56:29;;;;;;;;;;;;;;;;;;348577;28;925;-77
2022/02/05 02:56:47;;;;;;;;;;;;;;;;;;345767;28;894;-77
2022/02/05 02:57:29;;;;;;;;;;;;;;;;;;347323;28;976;-77
2022/02/05 02:57:40;;;;;;;;;;;;;;;;;;347376;28;988;-77
2022/02/05 02:57:55;;;;;;;;;;;;;;;;;;347337;28;933;-77
2022/02/05 02:58:08;;;;;;;;;;;;;;;;;;347409;28;852;-77
2022/02/05 02:58:23;;;;;;;;;;;;;;;;;;347334;28;944;-77
2022/02/05 02:58:37;;;;;;;;;;;;;;;;;;347318;28;811;-76
2022/02/05 02:58:49;;;;;;;;;;;;;;;;;;347368;28;1109;-76
2022/02/05 02:59:19;;;;;;;;;;;;;;;;;;347681;28;1734;-77
2022/02/05 02:59:37;;;;;;;;;;;;;;;;;;347247;28;870;-77
2022/02/05 02:59:51;;;;;;;;;;;;;;;;;;347399;28;868;-76
2022/02/05 03:00:06;;;;;;;;;;;;;;;;;;347358;28;1513;-77
2022/02/05 03:00:16;;;;;;;;;;;;;;;;;;347365;28;933;-77
2022/02/05 03:00:27;;;;;;;;;;;;;;;;;;347352;28;814;-77
2022/02/05 03:00:37;;;;;;;;;;;;;;;;;;347359;28;925;-77
2022/02/05 03:00:53;;;;;;;;;;;;;;;;;;347315;28;809;-77
2022/02/05 03:01:03;;;;;;;;;;;;;;;;;;347395;28;858;-77
2022/02/05 03:01:18;;;;;;;;;;;;;;;;;;347368;28;976;-77
2022/02/05 03:01:31;;;;;;;;;;;;;;;;;;347297;28;944;-77
2022/02/05 03:01:43;;;;;;;;;;;;;;;;;;347383;28;929;-77
2022/02/05 03:01:59;;;;;;;;;;;;;;;;;;347379;28;866;-76
2022/02/05 03:02:12;;;;;;;;;;;;;;;;;;347248;28;790;-77
2022/02/05 03:02:25;;;;;;;;;;;;;;;;;;347247;28;870;-77
2022/02/05 03:02:35;;;;;;;;;;;;;;;;;;347287;28;949;-76
2022/02/05 03:02:45;;;;;;;;;;;;;;;;;;347211;28;1039;-76
2022/02/05 03:02:55;;;;;;;;;;;;;;;;;;347042;28;1043;-77
2022/02/05 03:03:06;;;;;;;;;;;;;;;;;;347279;28;901;-77
2022/02/05 03:03:16;;;;;;;;;;;;;;;;;;347302;28;885;-77
2022/02/05 03:03:27;;;;;;;;;;;;;;;;;;347076;28;1167;-77
2022/02/05 03:03:37;;;;;;;;;;;;;;;;;;347017;28;1126;-77
2022/02/05 03:03:48;;;;;;;;;;;;;;;;;;347110;28;1030;-77
2022/02/05 03:03:58;;;;;;;;;;;;;;;;;;347110;28;1047;-77
2022/02/05 03:04:08;;;;;;;;;;;;;;;;;;347277;28;865;-77
2022/02/05 03:04:18;;;;;;;;;;;;;;;;;;348065;28;1735;-77
2022/02/05 03:04:28;;;;;;;;;;;;;;;;;;348627;28;1761;-77
2022/02/05 03:04:39;;;;;;;;;;;;;;;;;;349978;28;976;-77
2022/02/05 03:04:49;;;;;;;;;;;;;;;;;;350020;28;979;-77
2022/02/05 03:05:00;;;;;;;;;;;;;;;;;;349947;28;992;-77
2022/02/05 03:05:10;;;;;;;;;;;;;;;;;;350044;28;845;-77
2022/02/05 03:05:20;;;;;;;;;;;;;;;;;;349972;28;869;-76
2022/02/05 03:05:31;;;;;;;;;;;;;;;;;;349929;28;1035;-77
2022/02/05 03:05:41;;;;;;;;;;;;;;;;;;349918;28;964;-77